Time;durP1;ratioP1;P1;durP2;ratioP2;P2;SDS_P1;SDS_P2;PMS_P1;PMS_P2;Temp;Humidity;BMP_temperature;BMP_pressure;BME280_temperature;BME280_humidity;BME280_pressure;Samples;Min_cycle;Max_cycle;Signal;HPM_P1;HPM_P2
2021/03/21 00:01:07;;;;;;;10.52;3.80;;;;;;;23.59;36.62;100242.75;4465321;32;34029;-58
2021/03/21 00:03:35;;;;;;;13.88;3.53;;;;;;;23.58;36.62;100246.53;4482180;32;34849;-58
2021/03/21 00:06:02;;;;;;;14.48;3.60;;;;;;;23.57;36.60;100247.59;4482941;32;33887;-59
2021/03/21 00:08:33;;;;;;;12.90;3.60;;;;;;;23.55;36.60;100247.81;4483055;32;34784;-58
2021/03/21 00:11:05;;;;;;;8.02;2.85;;;;;;;23.55;36.61;100255.13;4482772;32;33263;-59
2021/03/21 00:13:32;;;;;;;9.10;3.10;;;;;;;23.53;36.62;100249.91;4482885;32;34424;-57
2021/03/21 00:16:00;;;;;;;14.18;3.97;;;;;;;23.54;36.69;100248.00;4482986;32;34752;-59
2021/03/21 00:18:30;;;;;;;11.65;3.20;;;;;;;23.51;36.71;100245.75;4482969;32;33744;-60
2021/03/21 00:20:57;;;;;;;10.25;3.08;;;;;;;23.49;36.70;100242.38;4483114;32;34023;-61
2021/03/21 00:23:24;;;;;;;9.80;3.67;;;;;;;23.49;36.67;100235.03;4483798;32;33831;-61
2021/03/21 00:25:51;;;;;;;28.30;6.40;;;;;;;23.47;36.60;100239.88;4484632;32;33841;-58
2021/03/21 00:28:21;;;;;;;10.93;3.25;;;;;;;23.46;36.25;100234.66;4484947;32;33642;-59
2021/03/21 00:30:49;;;;;;;11.20;3.62;;;;;;;23.45;35.76;100236.53;4485331;32;33964;-60
2021/03/21 00:33:17;;;;;;;10.88;3.37;;;;;;;23.43;35.94;100230.47;4484736;32;33535;-56
2021/03/21 00:35:45;;;;;;;9.25;4.15;;;;;;;23.40;36.11;100220.00;4484800;32;33819;-58
2021/03/21 00:38:29;;;;;;;15.40;3.95;;;;;;;23.39;36.16;100219.16;4484827;32;33601;-53
2021/03/21 00:40:56;;;;;;;12.93;4.00;;;;;;;23.40;36.21;100220.00;4484946;32;33471;-53
2021/03/21 00:43:24;;;;;;;12.35;3.85;;;;;;;23.37;36.27;100212.28;4484706;32;33761;-57
2021/03/21 00:45:51;;;;;;;10.85;3.28;;;;;;;23.37;36.27;100220.44;4484736;32;33853;-57
2021/03/21 00:48:23;;;;;;;11.45;4.00;;;;;;;23.34;36.33;100215.41;4484824;32;34513;-59
2021/03/21 00:50:50;;;;;;;11.25;3.50;;;;;;;23.34;36.38;100213.53;4484659;32;34186;-59
2021/03/21 00:53:18;;;;;;;13.35;3.55;;;;;;;23.32;36.37;100210.19;4484677;32;34808;-58
2021/03/21 00:55:45;;;;;;;9.43;3.25;;;;;;;23.32;36.42;100206.66;4484803;32;34932;-56
2021/03/21 00:58:13;;;;;;;10.65;3.70;;;;;;;23.29;36.37;100204.34;4484432;32;34004;-53
2021/03/21 01:00:42;;;;;;;11.35;3.58;;;;;;;23.29;36.45;100204.34;4484392;32;33431;-55
2021/03/21 01:03:09;;;;;;;11.75;3.83;;;;;;;23.28;36.44;100197.22;4484372;32;34846;-57
2021/03/21 01:05:51;;;;;;;9.52;3.60;;;;;;;23.27;36.47;100198.25;4484549;32;33795;-56
2021/03/21 01:08:33;;;;;;;12.48;3.58;;;;;;;23.27;36.48;100198.25;4484611;32;33855;-56
2021/03/21 01:11:14;;;;;;;8.25;3.42;;;;;;;23.25;36.57;100198.50;4484643;32;34674;-60
2021/03/21 01:13:41;;;;;;;7.12;3.15;;;;;;;23.24;36.56;100198.72;4484407;32;33784;-60
2021/03/21 01:16:12;;;;;;;9.25;3.30;;;;;;;23.22;36.60;100203.53;4484372;32;33790;-55
2021/03/21 01:18:39;;;;;;;11.45;3.62;;;;;;;23.20;36.62;100192.84;4484107;32;33907;-58
2021/03/21 01:21:11;;;;;;;10.30;3.78;;;;;;;23.21;36.65;100190.97;4484495;32;33405;-55
2021/03/21 01:23:39;;;;;;;10.38;3.05;;;;;;;23.19;36.78;100179.47;4484237;32;33821;-58
2021/03/21 01:26:08;;;;;;;15.88;3.78;;;;;;;23.18;36.76;100186.81;4484126;32;33688;-58
2021/03/21 01:28:35;;;;;;;9.73;3.60;;;;;;;23.17;36.73;100180.53;4484489;32;33860;-58
2021/03/21 01:31:05;;;;;;;7.90;2.90;;;;;;;23.16;36.72;100180.72;4484391;32;33421;-58
2021/03/21 01:33:33;;;;;;;14.32;3.45;;;;;;;23.16;36.84;100175.28;4483985;32;34507;-58
2021/03/21 01:36:00;;;;;;;11.48;3.53;;;;;;;23.16;36.81;100167.13;4484119;32;34531;-57
2021/03/21 01:38:27;;;;;;;8.55;2.90;;;;;;;23.13;36.93;100171.12;4484522;32;33858;-54
2021/03/21 01:41:00;;;;;;;10.93;3.12;;;;;;;23.14;36.91;100177.41;4484517;32;33295;-56
2021/03/21 01:43:36;;;;;;;8.88;3.28;;;;;;;23.14;36.91;100164.62;4484462;32;33954;-54
2021/03/21 01:46:05;;;;;;;12.50;3.40;;;;;;;23.12;36.89;100169.44;4482803;32;33948;-57
2021/03/21 01:48:32;;;;;;;12.93;3.37;;;;;;;23.11;36.91;100167.75;4484177;32;34883;-59
2021/03/21 01:51:26;;;;;;;9.35;3.15;;;;;;;23.10;36.86;100159.81;4477553;32;33533;-58
2021/03/21 01:53:56;;;;;;;13.52;3.95;;;;;;;23.11;36.95;100161.47;4465680;32;34545;-58
2021/03/21 01:56:25;;;;;;;10.63;2.78;;;;;;;23.08;36.97;100165.50;4467262;32;34377;-58
2021/03/21 01:59:13;;;;;;;12.18;3.25;;;;;;;23.07;37.01;100161.06;4454599;32;33842;-57
2021/03/21 02:01:41;;;;;;;14.25;3.50;;;;;;;23.08;37.05;100157.31;4468496;32;33455;-58
2021/03/21 02:04:10;;;;;;;11.82;3.40;;;;;;;23.07;36.97;100160.25;4468821;32;34660;-56
2021/03/21 02:06:40;;;;;;;10.05;3.22;;;;;;;23.05;37.03;100154.19;4468730;32;33790;-56
2021/03/21 02:09:35;;;;;;;11.70;2.97;;;;;;;23.04;37.03;100155.25;4468781;32;33725;-58
2021/03/21 02:12:23;;;;;;;11.05;3.83;;;;;;;23.05;37.07;100146.03;4468791;32;33344;-59
2021/03/21 02:15:18;;;;;;;13.18;3.42;;;;;;;23.03;37.06;100146.22;4467438;32;34497;-56
2021/03/21 02:18:01;;;;;;;7.00;2.78;;;;;;;23.03;37.05;100140.78;4468447;32;34882;-56
2021/03/21 02:20:28;;;;;;;10.27;3.42;;;;;;;23.01;37.07;100142.91;4467413;32;33390;-56
2021/03/21 02:23:04;;;;;;;9.15;2.58;;;;;;;22.99;37.06;100141.41;4468302;32;33365;-55
2021/03/21 02:25:54;;;;;;;7.00;3.28;;;;;;;22.98;37.13;100135.16;4454985;32;33486;-54
2021/03/21 02:28:45;;;;;;;9.18;3.45;;;;;;;22.99;37.11;100130.53;4467994;32;33866;-57
2021/03/21 02:31:24;;;;;;;10.07;3.05;;;;;;;22.98;37.08;100132.44;4467100;32;34497;-56
2021/03/21 02:34:32;;;;;;;10.23;3.03;;;;;;;22.97;37.10;100128.03;4451139;32;151043;-57
2021/03/21 02:37:06;;;;;;;6.78;2.78;;;;;;;22.99;37.13;100125.09;4467229;32;33519;-56
2021/03/21 02:39:47;;;;;;;9.77;3.10;;;;;;;22.96;37.15;100123.66;4467082;32;34688;-54
2021/03/21 02:42:26;;;;;;;12.60;3.30;;;;;;;22.95;37.20;100127.44;4455444;32;34106;-58
2021/03/21 02:45:07;;;;;;;8.10;2.95;;;;;;;22.95;37.18;100123.88;4453979;32;33590;-57
2021/03/21 02:47:34;;;;;;;11.18;3.22;;;;;;;22.94;37.20;100122.19;4467053;32;33593;-56
2021/03/21 02:50:13;;;;;;;12.35;3.17;;;;;;;22.92;37.32;100122.41;4468328;32;34583;-54
2021/03/21 02:52:50;;;;;;;7.45;3.03;;;;;;;22.92;37.37;100122.41;4455083;32;33718;-56
2021/03/21 02:55:28;;;;;;;8.05;3.28;;;;;;;22.91;37.26;100118.03;4454979;32;34764;-53
2021/03/21 02:58:04;;;;;;;10.25;3.15;;;;;;;22.90;37.25;100116.38;4467294;32;33871;-58
2021/03/21 03:00:35;;;;;;;11.07;2.95;;;;;;;22.91;37.25;100121.59;4467013;32;33966;-55
2021/03/21 03:03:04;;;;;;;12.52;3.00;;;;;;;22.89;37.33;100114.66;4467107;32;33718;-55
2021/03/21 03:05:37;;;;;;;11.10;2.80;;;;;;;22.88;37.33;100119.25;4466957;32;33332;-59
2021/03/21 03:08:11;;;;;;;8.35;3.03;;;;;;;22.87;37.27;100114.87;4466720;32;33864;-54
2021/03/21 03:10:43;;;;;;;9.18;3.25;;;;;;;22.88;37.29;100110.25;4454115;32;34759;-58
2021/03/21 03:13:31;;;;;;;12.40;3.35;;;;;;;22.86;37.28;100115.09;4454375;32;33804;-58
2021/03/21 03:16:00;;;;;;;7.57;2.75;;;;;;;22.89;37.27;100111.94;4454293;32;34340;-58
2021/03/21 03:19:06;;;;;;;10.00;2.80;;;;;;;22.85;37.22;100105.25;4454096;32;33913;-55
2021/03/21 03:21:42;;;;;;;10.63;3.47;;;;;;;22.85;37.30;100106.09;4411918;32;33764;-57
2021/03/21 03:24:42;;;;;;;10.38;2.67;;;;;;;22.84;37.42;100100.84;4466817;32;33454;-57
2021/03/21 03:27:28;;;;;;;10.02;3.97;;;;;;;22.85;37.38;100091.66;4467772;32;33341;-59
2021/03/21 03:29:57;;;;;;;7.35;3.08;;;;;;;22.81;37.36;100091.25;4468053;32;33874;-59
2021/03/21 03:32:26;;;;;;;11.90;3.22;;;;;;;22.80;37.48;100095.03;4467837;32;33783;-58
2021/03/21 03:34:54;;;;;;;11.07;3.53;;;;;;;22.80;37.49;100096.88;4453725;32;34072;-58
2021/03/21 03:37:25;;;;;;;8.65;3.00;;;;;;;22.80;37.50;100092.31;4467830;32;33476;-58
2021/03/21 03:39:52;;;;;;;11.48;2.70;;;;;;;22.79;37.49;100093.31;4467809;32;33877;-58
2021/03/21 03:42:43;;;;;;;11.23;2.80;;;;;;;22.80;37.38;100086.00;4467779;32;34870;-58
2021/03/21 03:45:20;;;;;;;9.20;2.92;;;;;;;22.81;37.45;100087.69;4466342;32;33368;-58
2021/03/21 03:48:02;;;;;;;9.27;3.15;;;;;;;22.78;37.40;100082.69;4453360;32;34111;-52
2021/03/21 03:50:46;;;;;;;8.43;2.80;;;;;;;22.77;37.41;100081.84;4470782;32;34589;-58
2021/03/21 03:53:42;;;;;;;9.05;2.65;;;;;;;22.77;37.44;100075.56;4482336;32;34658;-56
2021/03/21 03:56:15;;;;;;;8.15;3.15;;;;;;;22.78;37.45;100069.06;4482058;32;33476;-56
2021/03/21 03:59:22;;;;;;;8.15;3.00;;;;;;;22.74;37.50;100076.81;4471235;32;34102;-56
2021/03/21 04:02:11;;;;;;;13.30;2.90;;;;;;;22.77;37.45;100061.97;4445472;32;33531;-56
2021/03/21 04:04:45;;;;;;;13.40;3.45;;;;;;;22.73;37.43;100063.44;4484030;32;33778;-57
2021/03/21 04:07:36;;;;;;;11.35;2.85;;;;;;;22.72;37.49;100059.06;4484037;32;33570;-58
2021/03/21 04:10:14;;;;;;;6.40;2.72;;;;;;;22.71;37.52;100065.53;4477938;32;33165;-56
2021/03/21 04:12:48;;;;;;;9.90;2.90;;;;;;;22.72;37.48;100059.91;4483933;32;33505;-59
2021/03/21 04:15:18;;;;;;;13.00;3.83;;;;;;;22.71;37.51;100054.66;4484199;32;34562;-58
2021/03/21 04:18:10;;;;;;;10.93;2.72;;;;;;;22.70;37.48;100055.72;4483827;32;33765;-53
2021/03/21 04:20:43;;;;;;;9.93;3.00;;;;;;;22.72;37.44;100048.19;4475583;32;33028;-59
2021/03/21 04:23:15;;;;;;;8.02;2.42;;;;;;;22.69;37.50;100044.00;4483922;32;33399;-59
2021/03/21 04:25:44;;;;;;;10.88;3.37;;;;;;;22.69;37.53;100037.72;4483786;32;33524;-60
2021/03/21 04:28:44;;;;;;;7.00;2.70;;;;;;;22.68;37.51;100039.63;4470794;32;35090;-59
2021/03/21 04:31:13;;;;;;;11.80;3.00;;;;;;;22.70;37.52;100033.94;4483796;32;34255;-58
2021/03/21 04:33:48;;;;;;;11.98;2.85;;;;;;;22.68;37.57;100036.87;4483795;32;33792;-57
2021/03/21 04:36:27;;;;;;;12.00;3.20;;;;;;;22.68;37.57;100034.16;4470779;32;34638;-54
2021/03/21 04:39:03;;;;;;;7.53;3.20;;;;;;;22.65;37.61;100038.13;4483959;32;33890;-56
2021/03/21 04:41:51;;;;;;;6.12;2.90;;;;;;;22.64;37.60;100032.94;4483640;32;33915;-58
2021/03/21 04:44:28;;;;;;;10.60;2.55;;;;;;;22.64;37.57;100028.31;4460124;32;34588;-56
2021/03/21 04:47:09;;;;;;;7.85;2.85;;;;;;;22.65;37.50;100026.44;4483706;32;33812;-54
2021/03/21 04:49:36;;;;;;;13.50;2.97;;;;;;;22.65;37.56;100021.00;4483669;32;34300;-54
2021/03/21 04:52:37;;;;;;;8.45;3.28;;;;;;;22.63;37.58;100017.66;4470044;32;34013;-59
2021/03/21 04:55:06;;;;;;;7.60;2.83;;;;;;;22.64;37.57;100016.59;4468032;32;34396;-55
2021/03/21 04:57:45;;;;;;;10.77;2.80;;;;;;;22.61;37.62;100017.88;4454894;32;33940;-56
2021/03/21 05:00:28;;;;;;;7.82;2.78;;;;;;;22.63;37.60;100020.37;4467908;32;34501;-55
2021/03/21 05:02:58;;;;;;;9.23;2.72;;;;;;;22.63;37.63;100021.22;4454950;32;32991;-55
2021/03/21 05:05:34;;;;;;;7.60;2.67;;;;;;;22.65;37.75;100021.00;4469161;32;34828;-56
2021/03/21 05:08:05;;;;;;;6.60;2.60;;;;;;;22.77;37.83;100026.59;4454454;32;33608;-55
2021/03/21 05:10:33;;;;;;;11.60;2.62;;;;;;;22.91;37.69;100028.25;4467687;32;33470;-58
2021/03/21 05:13:20;;;;;;;11.73;2.72;;;;;;;23.10;37.47;100021.00;4467809;32;34031;-50
2021/03/21 05:15:57;;;;;;;6.80;2.47;;;;;;;23.27;37.28;100022.16;4467772;32;33882;-58
2021/03/21 05:19:00;;;;;;;6.70;2.50;;;;;;;23.49;37.04;100017.16;4468062;32;33572;-58
2021/03/21 05:21:55;;;;;;;6.32;2.80;;;;;;;23.65;36.82;100013.94;4456208;32;34783;-56
2021/03/21 05:24:41;;;;;;;7.05;2.30;;;;;;;23.86;36.53;100020.03;4454861;32;33903;-60
2021/03/21 05:27:11;;;;;;;6.68;2.40;;;;;;;23.94;36.43;100022.47;4467366;32;33649;-56
2021/03/21 05:29:38;;;;;;;;;;;;;;;24.05;36.25;100020.88;4467851;32;33688;-59
2021/03/21 05:32:06;;;;;;;8.30;2.30;;;;;;;24.23;35.93;100026.34;4468944;32;34161;-59
2021/03/21 05:34:33;;;;;;;8.40;2.10;;;;;;;24.21;35.95;100023.03;4468623;32;33197;-58
2021/03/21 05:37:03;;;;;;;7.43;2.65;;;;;;;24.24;35.89;100022.56;4468821;32;33933;-56
2021/03/21 05:39:45;;;;;;;10.38;2.25;;;;;;;24.26;35.88;100015.00;4467358;32;33817;-57
2021/03/21 05:42:25;;;;;;;7.10;2.78;;;;;;;24.32;35.81;100019.53;4468547;32;34629;-59
2021/03/21 05:45:11;;;;;;;7.17;2.37;;;;;;;24.32;35.79;100018.72;4467328;32;34100;-58
2021/03/21 05:48:02;;;;;;;6.30;2.30;;;;;;;24.35;35.78;100023.72;4468571;32;33351;-60
2021/03/21 05:50:59;;;;;;;7.40;2.60;;;;;;;24.31;35.89;100026.06;4471859;32;34261;-57
2021/03/21 05:53:52;;;;;;;6.40;1.95;;;;;;;24.32;35.93;100024.16;4476144;31;34530;-59
2021/03/21 05:56:57;;;;;;;5.60;2.45;;;;;;;24.29;35.87;100025.44;4481376;32;33472;-59
2021/03/21 05:59:45;;;;;;;6.90;2.62;;;;;;;24.30;35.94;100018.94;4484113;32;34589;-59
2021/03/21 06:02:43;;;;;;;8.40;3.17;;;;;;;24.28;35.84;100012.88;4484158;32;33940;-60
2021/03/21 06:05:40;;;;;;;6.68;2.22;;;;;;;24.23;35.85;100012.72;4484136;32;33360;-55
2021/03/21 06:08:32;;;;;;;7.90;2.35;;;;;;;24.21;36.02;100016.75;4482823;32;33292;-59
2021/03/21 06:11:24;;;;;;;9.95;2.30;;;;;;;24.16;36.10;100020.97;4484050;32;33552;-58
2021/03/21 06:14:06;;;;;;;10.65;2.62;;;;;;;24.13;36.09;100024.16;4484192;32;33690;-56
2021/03/21 06:17:00;;;;;;;9.13;2.53;;;;;;;24.09;36.27;100022.94;4484157;32;33963;-61
2021/03/21 06:20:13;;;;;;;9.88;2.40;;;;;;;24.07;36.36;100022.34;4483065;32;33506;-55
2021/03/21 06:22:52;;;;;;;11.10;2.40;;;;;;;24.05;36.37;100012.69;4460020;31;33624;-59
2021/03/21 06:25:42;;;;;;;11.32;2.90;;;;;;;24.00;36.44;100018.84;4482845;32;33898;-58
2021/03/21 06:28:16;;;;;;;12.68;2.37;;;;;;;23.98;36.28;100018.22;4484036;32;33861;-59
2021/03/21 06:30:54;;;;;;;15.13;2.97;;;;;;;23.96;36.25;100014.06;4483047;32;33637;-60
2021/03/21 06:33:26;;;;;;;14.05;2.47;;;;;;;23.95;36.24;100005.03;4482717;32;33650;-59
2021/03/21 06:36:02;;;;;;;14.43;2.95;;;;;;;23.92;36.36;100003.63;4484150;32;34910;-60
2021/03/21 06:38:48;;;;;;;8.95;2.80;;;;;;;23.89;36.42;100005.94;4483964;32;33762;-59
2021/03/21 06:41:31;;;;;;;10.88;3.25;;;;;;;23.86;36.52;99998.22;4482967;32;33962;-59
2021/03/21 06:44:29;;;;;;;12.52;2.70;;;;;;;23.84;36.55;99997.62;4482871;32;34812;-59
2021/03/21 06:47:08;;;;;;;10.23;2.58;;;;;;;23.82;36.60;100007.91;4483791;32;34549;-58
2021/03/21 06:50:14;;;;;;;11.38;2.65;;;;;;;23.79;36.61;100002.91;4484360;32;34530;-59
2021/03/21 06:53:04;;;;;;;8.25;2.58;;;;;;;23.76;36.68;100006.91;4456584;32;33639;-60
2021/03/21 06:55:49;;;;;;;;;;;;;;;23.72;36.69;99997.50;4467284;32;34609;-59
2021/03/21 06:58:19;;;;;;;14.80;2.58;;;;;;;23.77;36.60;100003.13;4467185;32;33677;-59
2021/03/21 07:00:46;;;;;;;;;;;;;;;23.66;36.72;99999.25;4468673;32;34343;-57
2021/03/21 07:03:32;;;;;;;10.18;2.33;;;;;;;23.73;36.59;99995.63;4468416;32;33199;-60
2021/03/21 07:06:32;;;;;;;4.43;2.03;;;;;;;23.64;36.72;100001.38;4467906;32;33570;-59
2021/03/21 07:09:29;;;;;;;10.90;2.75;;;;;;;23.60;36.78;100002.00;4466662;32;34909;-59
2021/03/21 07:12:20;;;;;;;11.52;3.28;;;;;;;23.57;36.77;100002.44;4467004;32;33914;-59
2021/03/21 07:15:25;;;;;;;9.45;3.17;;;;;;;23.53;36.85;100001.22;4468149;32;34367;-58
2021/03/21 07:17:58;;;;;;;6.82;2.50;;;;;;;23.51;36.91;99995.16;4468175;32;33417;-60
2021/03/21 07:20:47;;;;;;;8.88;2.83;;;;;;;23.46;36.98;99992.28;4468151;32;33618;-57
2021/03/21 07:23:35;;;;;;;13.27;2.40;;;;;;;23.46;36.95;99986.84;4466890;32;33791;-58
2021/03/21 07:26:30;;;;;;;7.78;2.75;;;;;;;23.45;36.91;99999.59;4467873;32;33298;-60
2021/03/21 07:29:14;;;;;;;10.73;2.60;;;;;;;23.41;37.13;99988.31;4469867;32;33485;-60
2021/03/21 07:31:56;;;;;;;11.18;3.92;;;;;;;23.37;37.08;99995.28;4465984;32;34661;-59
2021/03/21 07:34:41;;;;;;;10.25;2.22;;;;;;;23.36;37.04;99985.44;4467623;32;33953;-61
2021/03/21 07:37:17;;;;;;;7.45;2.30;;;;;;;23.35;37.12;99986.47;4483309;32;33948;-60
2021/03/21 07:40:12;;;;;;;6.85;2.58;;;;;;;23.33;37.11;99985.03;4481900;32;33586;-60
2021/03/21 07:42:54;;;;;;;8.50;2.53;;;;;;;23.34;37.07;99984.81;4483254;32;33874;-61
2021/03/21 07:45:28;;;;;;;9.48;2.58;;;;;;;23.32;37.16;99994.28;4483208;32;33739;-61
2021/03/21 07:48:17;;;;;;;11.82;2.25;;;;;;;23.29;37.12;99990.09;4483270;32;34329;-57
2021/03/21 07:50:59;;;;;;;10.13;2.75;;;;;;;23.30;37.08;99982.75;4483650;32;34580;-61
2021/03/21 07:53:31;;;;;;;7.95;2.20;;;;;;;23.25;37.17;99980.69;4483232;32;33962;-61
2021/03/21 07:56:12;;;;;;;9.55;2.45;;;;;;;23.24;37.17;99978.19;4482060;32;33557;-61
2021/03/21 07:58:47;;;;;;;7.80;3.03;;;;;;;23.24;37.18;99973.59;4481917;32;34381;-62
2021/03/21 08:01:16;;;;;;;11.82;2.50;;;;;;;23.23;37.17;99974.66;4474560;32;33535;-61
2021/03/21 08:03:55;;;;;;;6.90;2.45;;;;;;;23.22;37.19;99983.00;4453025;32;33927;-57
2021/03/21 08:06:28;;;;;;;7.40;2.60;;;;;;;23.21;37.24;99971.28;4466093;32;34704;-60
2021/03/21 08:09:04;;;;;;;11.35;2.53;;;;;;;23.20;37.13;99966.09;4467284;32;33627;-61
2021/03/21 08:11:32;;;;;;;13.30;2.90;;;;;;;23.19;37.19;99964.41;4466108;32;34506;-62
2021/03/21 08:14:12;;;;;;;12.15;3.00;;;;;;;23.15;37.19;99955.84;4453406;32;33872;-61
2021/03/21 08:16:43;;;;;;;8.47;2.87;;;;;;;23.16;36.67;99961.06;4465897;32;33479;-60
2021/03/21 08:19:13;;;;;;;11.32;3.37;;;;;;;23.14;36.22;99944.12;4466116;32;34379;-62
2021/03/21 08:21:40;;;;;;;7.97;3.10;;;;;;;23.12;35.76;99942.69;4465818;32;33779;-61
2021/03/21 08:24:33;;;;;;;7.45;3.30;;;;;;;23.10;34.77;99939.34;4467158;32;33549;-60
2021/03/21 08:27:03;;;;;;;6.10;3.10;;;;;;;23.09;34.22;99938.53;4464261;32;33617;-60
2021/03/21 08:29:57;;;;;;;13.75;3.60;;;;;;;23.04;33.92;99937.53;4467307;32;33883;-61
2021/03/21 08:32:25;;;;;;;10.10;3.20;;;;;;;23.03;34.06;99939.37;4466537;32;33717;-49
2021/03/21 08:34:52;;;;;;;9.85;3.58;;;;;;;22.98;33.56;99930.22;4472589;32;33757;-61
2021/03/21 08:37:40;;;;;;;15.60;3.28;;;;;;;22.96;33.44;99926.91;4482434;32;33813;-61
2021/03/21 08:40:23;;;;;;;19.62;3.78;;;;;;;22.92;33.95;99926.50;4481603;32;33325;-62
2021/03/21 08:42:55;;;;;;;20.77;4.00;;;;;;;22.91;33.32;99925.66;4482385;32;34622;-59
2021/03/21 08:45:47;;;;;;;11.70;3.75;;;;;;;22.88;32.77;99917.91;4483406;32;33845;-61
2021/03/21 08:48:18;;;;;;;16.73;3.85;;;;;;;22.90;32.46;99906.84;4478752;32;33592;-61
2021/03/21 08:51:04;;;;;;;21.27;4.30;;;;;;;22.90;32.41;99906.84;4472250;32;33315;-62
2021/03/21 08:53:50;;;;;;;14.32;3.80;;;;;;;22.95;32.27;99903.47;4484740;32;34629;-61
2021/03/21 08:56:26;;;;;;;17.58;3.55;;;;;;;23.02;32.29;99894.19;4484724;32;33597;-57
2021/03/21 08:59:12;;;;;;;12.93;3.53;;;;;;;23.16;32.46;99906.62;4484687;32;34007;-58
2021/03/21 09:01:40;;;;;;;10.10;2.97;;;;;;;23.33;32.52;99895.19;4482185;32;33513;-54
2021/03/21 09:04:09;;;;;;;14.45;3.50;;;;;;;23.53;32.61;99892.28;4484764;32;33715;-61
2021/03/21 09:06:38;;;;;;;13.30;2.90;;;;;;;23.68;32.41;99885.41;4484577;32;33574;-61
2021/03/21 09:09:22;;;;;;;14.63;3.12;;;;;;;23.85;32.39;99882.94;4484248;32;33985;-60
2021/03/21 09:11:51;;;;;;;15.52;3.92;;;;;;;24.04;32.36;99872.84;4470704;32;31844;-60
2021/03/21 09:14:29;;;;;;;10.30;3.28;;;;;;;24.15;32.19;99872.09;4476724;32;34831;-59
2021/03/21 09:17:04;;;;;;;10.27;3.53;;;;;;;24.28;32.00;99873.81;4482295;32;33930;-57
2021/03/21 09:19:34;;;;;;;12.60;3.75;;;;;;;24.38;31.93;99865.94;4482537;32;34387;-58
2021/03/21 09:22:11;;;;;;;9.45;3.30;;;;;;;24.46;31.96;99864.78;4484059;32;33604;-58
2021/03/21 09:24:39;;;;;;;16.40;3.47;;;;;;;24.53;32.03;99853.75;4478367;32;33734;-59
2021/03/21 09:27:31;;;;;;;15.57;3.20;;;;;;;24.58;32.11;99846.56;4468443;32;33970;-52
2021/03/21 09:29:59;;;;;;;14.30;2.95;;;;;;;24.64;32.20;99851.09;4482207;32;34297;-57
2021/03/21 09:32:28;;;;;;;9.15;3.25;;;;;;;24.66;32.26;99842.66;4482712;32;33195;-53
2021/03/21 09:35:08;;;;;;;11.10;3.50;;;;;;;24.66;32.39;99837.19;4470003;32;33848;-58
2021/03/21 09:37:35;;;;;;;12.65;3.50;;;;;;;24.69;32.50;99832.09;4484011;32;34691;-59
2021/03/21 09:40:13;;;;;;;12.20;3.12;;;;;;;24.68;32.55;99830.47;4466692;32;34623;-51
2021/03/21 09:42:40;;;;;;;11.40;3.50;;;;;;;24.68;32.64;99811.34;4467340;32;33980;-58
2021/03/21 09:45:10;;;;;;;12.73;3.25;;;;;;;24.69;32.69;99818.47;4454998;32;33760;-59
2021/03/21 09:47:41;;;;;;;15.27;3.28;;;;;;;24.67;32.75;99815.16;4466874;32;34757;-59
2021/03/21 09:50:16;;;;;;;10.30;3.28;;;;;;;24.64;32.84;99823.81;4454533;32;34051;-56
2021/03/21 09:52:50;;;;;;;11.45;2.92;;;;;;;24.63;32.87;99811.22;4468456;32;34169;-55
2021/03/21 09:55:39;;;;;;;6.35;2.78;;;;;;;24.58;32.97;99816.56;4466889;32;33685;-58
2021/03/21 09:58:35;;;;;;;9.23;3.08;;;;;;;24.60;33.00;99813.59;4468706;32;34746;-56
2021/03/21 10:01:37;;;;;;;13.00;2.97;;;;;;;24.58;33.17;99813.84;4455550;32;33719;-55
2021/03/21 10:04:15;;;;;;;10.10;2.80;;;;;;;24.52;33.33;99801.09;4468345;32;33333;-57
2021/03/21 10:06:42;;;;;;;10.77;3.33;;;;;;;24.47;33.50;99808.34;4455216;32;34512;-53
2021/03/21 10:09:14;;;;;;;9.73;3.15;;;;;;;24.40;33.56;99800.25;4454281;32;34684;-55
2021/03/21 10:11:45;;;;;;;10.60;3.30;;;;;;;24.37;33.71;99804.28;4452771;32;33853;-56
2021/03/21 10:14:34;;;;;;;9.88;2.92;;;;;;;24.35;33.72;99789.19;4466690;32;33206;-57
2021/03/21 10:17:16;;;;;;;9.77;3.28;;;;;;;24.33;33.57;99791.31;4473263;32;33649;-54
2021/03/21 10:19:47;;;;;;;10.93;2.90;;;;;;;24.29;33.60;99780.03;4468122;32;34883;-56
2021/03/21 10:22:18;;;;;;;12.45;3.10;;;;;;;24.23;33.76;99777.41;4468351;32;34597;-53
2021/03/21 10:24:47;;;;;;;8.88;3.08;;;;;;;24.18;33.84;99778.94;4468311;32;34146;-53
2021/03/21 10:27:14;;;;;;;11.60;3.95;;;;;;;24.16;33.94;99770.16;4467159;32;33461;-56
2021/03/21 10:29:42;;;;;;;10.57;3.20;;;;;;;24.14;34.02;99766.81;4469569;32;33688;-56
2021/03/21 10:32:25;;;;;;;7.30;3.30;;;;;;;24.12;34.09;99758.06;4483733;32;34588;-56
2021/03/21 10:34:57;;;;;;;7.40;2.80;;;;;;;24.10;34.20;99752.00;4483893;32;33439;-58
2021/03/21 10:38:06;;;;;;;8.23;3.05;;;;;;;24.06;34.25;99753.53;4482443;32;33875;-58
2021/03/21 10:40:34;;;;;;;12.40;2.90;;;;;;;24.06;34.39;99749.97;4466242;31;33630;-58
2021/03/21 10:43:02;;;;;;;14.80;3.08;;;;;;;24.00;34.42;99743.56;4483620;32;34711;-58
2021/03/21 10:45:32;;;;;;;10.35;2.97;;;;;;;23.98;34.49;99744.88;4483750;32;33494;-56
2021/03/21 10:48:14;;;;;;;7.45;2.60;;;;;;;23.95;34.52;99743.41;4483490;32;33775;-59
2021/03/21 10:50:58;;;;;;;6.65;2.65;;;;;;;23.95;34.54;99740.69;4483658;32;34722;-58
2021/03/21 10:53:35;;;;;;;14.77;3.20;;;;;;;23.91;34.63;99737.59;4483702;32;34398;-55
2021/03/21 10:56:06;;;;;;;7.87;2.80;;;;;;;23.88;34.70;99739.97;4483895;32;33486;-55
2021/03/21 10:58:33;;;;;;;10.52;2.75;;;;;;;23.84;34.76;99742.31;4481797;32;33917;-56
2021/03/21 11:01:23;;;;;;;8.48;2.83;;;;;;;23.82;34.81;99738.16;4483767;32;33833;-59
2021/03/21 11:04:01;;;;;;;;;;;;;;;23.82;34.84;99738.16;4484345;32;33842;-57
2021/03/21 11:06:31;;;;;;;10.85;2.87;;;;;;;23.88;34.68;99734.53;4482366;32;33314;-52
2021/03/21 11:09:09;;;;;;;7.50;2.65;;;;;;;23.77;34.76;99721.66;4482283;32;33784;-58
2021/03/21 11:11:38;;;;;;;11.38;2.72;;;;;;;23.75;34.80;99726.53;4483501;32;33894;-54
2021/03/21 11:14:21;;;;;;;15.70;3.15;;;;;;;23.70;34.85;99716.31;4477945;32;33904;-58
2021/03/21 11:17:08;;;;;;;11.50;3.05;;;;;;;23.65;34.66;99711.56;4482561;32;34105;-57
2021/03/21 11:19:47;;;;;;;13.70;3.45;;;;;;;23.62;34.47;99703.81;4483291;32;33461;-55
2021/03/21 11:22:26;;;;;;;10.75;3.03;;;;;;;23.62;34.44;99687.47;4483551;32;33873;-58
2021/03/21 11:24:53;;;;;;;12.23;2.72;;;;;;;23.62;34.61;99692.09;4483419;32;34566;-59
2021/03/21 11:27:34;;;;;;;12.27;3.25;;;;;;;23.58;34.68;99680.81;4481737;32;33386;-48
2021/03/21 11:30:11;;;;;;;25.00;3.55;;;;;;;23.58;34.73;99672.63;4477628;32;33900;-60
2021/03/21 11:32:38;;;;;;;9.88;3.33;;;;;;;23.54;34.86;99676.88;4479605;32;33751;-61
2021/03/21 11:35:26;;;;;;;14.32;3.35;;;;;;;23.52;34.69;99670.84;4481264;32;33951;-59
2021/03/21 11:37:56;;;;;;;13.45;3.25;;;;;;;23.54;34.70;99665.97;4479694;32;34124;-60
2021/03/21 11:40:27;;;;;;;10.82;2.83;;;;;;;23.50;34.79;99664.81;4466116;32;33572;-58
2021/03/21 11:43:16;;;;;;;17.17;3.25;;;;;;;23.46;34.75;99655.44;4476318;32;34688;-59
2021/03/21 11:45:43;;;;;;;15.13;3.28;;;;;;;23.47;34.69;99648.91;4476117;32;33531;-59
2021/03/21 11:48:25;;;;;;;12.07;3.33;;;;;;;23.44;34.75;99641.19;4454883;32;33230;-60
2021/03/21 11:50:55;;;;;;;16.02;3.62;;;;;;;23.44;34.80;99638.47;4455629;32;34585;-56
2021/03/21 11:53:27;;;;;;;9.55;3.67;;;;;;;23.41;34.86;99636.25;4467527;32;34780;-59
2021/03/21 11:55:58;;;;;;;13.75;3.47;;;;;;;23.38;34.91;99626.63;4470914;32;33569;-59
2021/03/21 11:58:39;;;;;;;8.00;2.47;;;;;;;23.38;34.99;99620.34;4476972;32;33169;-59
2021/03/21 12:01:20;;;;;;;8.55;3.05;;;;;;;23.38;35.00;99618.47;4465731;32;34938;-60
2021/03/21 12:03:56;;;;;;;12.45;3.22;;;;;;;23.37;35.08;99618.69;4474859;32;33996;-59
2021/03/21 12:06:46;;;;;;;5.55;2.25;;;;;;;23.35;35.12;99599.03;4468970;32;33608;-60
2021/03/21 12:09:26;;;;;;;12.37;3.10;;;;;;;23.36;35.16;99595.22;4480955;32;33170;-59
2021/03/21 12:11:54;;;;;;;14.18;3.65;;;;;;;23.34;35.19;99587.31;4480505;32;35470;-60
2021/03/21 12:14:25;;;;;;;15.05;3.45;;;;;;;23.32;35.05;99584.00;4478899;32;33743;-57